Willis VA Speed Test Log

Averages  Max Speed    
1 to 25 of 300** for City Willis VA
Time
Speed Provider Size    User ConnectID  TestID   
6/24/20 12:09:29 am 2.8 Mbps 350 kB/sCitizens 2.3 MB60872214457 Zxu-o7Ewk 
6/24/20 12:09:15 am 380 kbps 48 kB/sCitizens 480 kB60872214457 z~OgbNj3x 
6/23/20 9:34:26 pm 2.97 Mbps 371 kB/sCitizens 2.4 MB60872214457 YR8pwu-Hr 
6/23/20 9:34:12 pm 257 kbps 32 kB/sCitizens 304 kB60872214457 AYTfHRye- 
4/1/19 11:54:30 am 1.7 Mbps 213 kB/sCitizens 10 MBjohn-kc2rxs6087194170 rk_~-q5Ar 
4/1/19 11:48:27 am 10.07 Mbps 1.26 MB/sCitizens 10 MBjohn-kc2rxs6087194170 su1LxMHiA 
3/31/19 1:11:09 am 8.92 Mbps 1.12 MB/sCitizens 12 MBjohn-kc2rxs6087194170 Kp9W3rvij 
3/31/19 1:10:48 am 8.38 Mbps 1.05 MB/sCitizens 12 MBjohn-kc2rxs6087194170 qoaxG4cpa 
3/31/19 1:10:27 am 7.63 Mbps 953 kB/sCitizens 12 MBjohn-kc2rxs6087194170 VEhiyw~_3 
3/31/19 1:10:07 am 6.73 Mbps 841 kB/sCitizens 12 MBjohn-kc2rxs6087194170 CmmTQRG9C 
3/31/19 1:09:41 am 8.29 Mbps 1.04 MB/sCitizens 12 MBjohn-kc2rxs6087194170 9oGIwGWSv 
3/30/19 2:41:18 am 2.4 Mbps 300 kB/sCitizens 3.7 MB6087194170 is3LCeDMr 
3/27/19 2:35:46 am 2.08 Mbps 260 kB/sCitizens 3.9 MB6087194170 DpIiqLTHn 
3/27/19 12:15:17 am 939 kbps 117 kB/sCitizens 6 MBjohn-kc2rxs6087194170 xR-~vxg_4 
3/26/19 12:53:04 pm 5.89 Mbps 737 kB/sCitizens 6 MBjohn-kc2rxs6087194170 1q6~xiOCx 
3/26/19 12:50:45 pm 4.07 Mbps 509 kB/sCitizens 6 MBjohn-kc2rxs6087194170 cALkV5_6q 
3/26/19 12:47:42 pm 4.73 Mbps 592 kB/sCitizens 6 MBjohn-kc2rxs6087194170 SxMAIcExR 
3/25/19 8:10:55 pm 1.56 Mbps 195 kB/sCitizens 6 MBjohn-kc2rxs6087194170 xhVBAPoHs 
3/25/19 7:48:14 pm 4.6 Mbps 575 kB/sCitizens 6 MBjohn-kc2rxs6087194170 SPDyE4Cu0 
3/25/19 7:44:06 pm 4.26 Mbps 532 kB/sCitizens 6 MBjohn-kc2rxs6087194170 BYHQAyiGo 
3/25/19 7:42:48 pm 3.35 Mbps 418 kB/sCitizens 6 MBjohn-kc2rxs6087194170 mX51_qoVQ 
3/25/19 3:57:58 pm 4.8 Mbps 599 kB/sCitizens 6 MBjohn-kc2rxs6087194170 J7TDIIu8y 
3/25/19 3:06:14 pm 5.33 Mbps 667 kB/sCitizens 6 MBjohn-kc2rxs6087194170 Pw48HMR5O 
3/25/19 3:00:55 pm 5.54 Mbps 693 kB/sCitizens 6 MBjohn-kc2rxs6087194170 M1TdBxLnk 
3/25/19 2:55:36 pm 3.28 Mbps 409 kB/sCitizens 6 MBjohn-kc2rxs6087194170 MuKGvwGI6 
  
** Partial Results: The most recent results have been displayed. Results over 50 Mbps are highlighted.
Graphed results calculation
Displaying Internet Speed Test results for City Willis VA

Minimum

Min 0.94 Mbps : 0.26 Mbps

Average [show Median]

Average 4.8 Mbps : 0.32 Mbps

Maximum

Max 10.07 Mbps : 0.38 Mbps

Minimum

Minimum: 0.94 Mbps : 0.26 Mbps

Average

Average: 4.8 Mbps : 0.32 Mbps [show Median]

Maximum

Maximum: 10.07 Mbps : 0.38 Mbps